DEPSG EDVE-EDVK
Flight info
| Callsign | DEPSG |
|---|---|
| Flight time | 0h 36m |
| Altitude | 4500 |
| Route | SIERRA DCT GOETTINGEN DCT ECHO |
| Aircraft | C206/L-SDFGR/C |
Departure
| Time | 2026-04-22 12:47 |
|---|---|
| Airport | Braunschweig-Wolfsburg Airport (EDVE) |
Arrival
| Time | 2026-04-22 13:24 |
|---|---|
| Airport | Kassel Airport (EDVK) |
| Time | Latitude | Longitude | Altitude | Speed | Heading |
|---|---|---|---|---|---|
| 2026-04-22 12:40 | 52.31582 | 10.55504 | 276 ft | 0 kts | 124° |
| 2026-04-22 12:43 | 52.31581 | 10.55508 | 276 ft | 1 kts | 122° |
| 2026-04-22 12:44 | 52.31581 | 10.55543 | 276 ft | 5 kts | 58° |
| 2026-04-22 12:44 | 52.31614 | 10.55588 | 276 ft | 7 kts | 39° |
| 2026-04-22 12:44 | 52.31665 | 10.55636 | 276 ft | 9 kts | 30° |
| 2026-04-22 12:44 | 52.31718 | 10.55716 | 276 ft | 11 kts | 52° |
| 2026-04-22 12:45 | 52.31752 | 10.55842 | 276 ft | 12 kts | 77° |
| 2026-04-22 12:45 | 52.31762 | 10.55984 | 279 ft | 12 kts | 85° |
| 2026-04-22 12:45 | 52.31770 | 10.56133 | 279 ft | 13 kts | 85° |
| 2026-04-22 12:45 | 52.31777 | 10.56292 | 282 ft | 13 kts | 89° |
| 2026-04-22 12:46 | 52.31836 | 10.56396 | 284 ft | 13 kts | 9° |
| 2026-04-22 12:46 | 52.31923 | 10.56380 | 285 ft | 12 kts | 342° |
| 2026-04-22 12:46 | 52.31960 | 10.56261 | 284 ft | 17 kts | 262° |
| 2026-04-22 12:46 | 52.31936 | 10.55917 | 279 ft | 52 kts | 266° |
| 2026-04-22 12:47 | 52.31888 | 10.55060 | 304 ft | 91 kts | 266° |
| 2026-04-22 12:47 | 52.31800 | 10.54068 | 522 ft | 95 kts | 263° |
| 2026-04-22 12:47 | 52.31667 | 10.53068 | 855 ft | 85 kts | 260° |
| 2026-04-22 12:47 | 52.31531 | 10.52053 | 1031 ft | 93 kts | 258° |
| 2026-04-22 12:48 | 52.31165 | 10.51177 | 1140 ft | 102 kts | 227° |
| 2026-04-22 12:48 | 52.30633 | 10.50395 | 1231 ft | 106 kts | 223° |
| 2026-04-22 12:48 | 52.30044 | 10.49614 | 1315 ft | 109 kts | 212° |
| 2026-04-22 12:48 | 52.29400 | 10.49012 | 1422 ft | 109 kts | 208° |
| 2026-04-22 12:49 | 52.28707 | 10.48460 | 1529 ft | 109 kts | 205° |
| 2026-04-22 12:49 | 52.28011 | 10.47956 | 1627 ft | 111 kts | 204° |
| 2026-04-22 12:49 | 52.27296 | 10.47489 | 1739 ft | 110 kts | 203° |
| 2026-04-22 12:49 | 52.26580 | 10.47024 | 1843 ft | 110 kts | 199° |
| 2026-04-22 12:50 | 52.25855 | 10.46636 | 1943 ft | 111 kts | 197° |
| 2026-04-22 12:50 | 52.25119 | 10.46225 | 2044 ft | 111 kts | 206° |
| 2026-04-22 12:50 | 52.24477 | 10.45593 | 2182 ft | 108 kts | 215° |
| 2026-04-22 12:50 | 52.23856 | 10.44903 | 2293 ft | 109 kts | 217° |
| 2026-04-22 12:51 | 52.23231 | 10.44209 | 2415 ft | 109 kts | 214° |
| 2026-04-22 12:51 | 52.22583 | 10.43561 | 2529 ft | 109 kts | 213° |
| 2026-04-22 12:51 | 52.21949 | 10.42881 | 2636 ft | 110 kts | 216° |
| 2026-04-22 12:51 | 52.21305 | 10.42195 | 2768 ft | 109 kts | 214° |
| 2026-04-22 12:52 | 52.20657 | 10.41548 | 2866 ft | 111 kts | 212° |
| 2026-04-22 12:52 | 52.20022 | 10.40844 | 2986 ft | 109 kts | 218° |
| 2026-04-22 12:52 | 52.19414 | 10.40086 | 3093 ft | 109 kts | 219° |
| 2026-04-22 12:52 | 52.18779 | 10.39408 | 3200 ft | 110 kts | 207° |
| 2026-04-22 12:53 | 52.18105 | 10.38800 | 3307 ft | 110 kts | 211° |
| 2026-04-22 12:53 | 52.17448 | 10.38154 | 3403 ft | 112 kts | 213° |
| 2026-04-22 12:53 | 52.16794 | 10.37477 | 3519 ft | 110 kts | 213° |
| 2026-04-22 12:53 | 52.16147 | 10.36794 | 3605 ft | 113 kts | 214° |
| 2026-04-22 12:54 | 52.15510 | 10.36034 | 3724 ft | 111 kts | 218° |
| 2026-04-22 12:54 | 52.14889 | 10.35280 | 3824 ft | 112 kts | 217° |
| 2026-04-22 12:54 | 52.14258 | 10.34527 | 3923 ft | 113 kts | 214° |
| 2026-04-22 12:54 | 52.13634 | 10.33776 | 4024 ft | 112 kts | 218° |
| 2026-04-22 12:55 | 52.13016 | 10.32981 | 4126 ft | 112 kts | 218° |
| 2026-04-22 12:55 | 52.12410 | 10.32183 | 4220 ft | 113 kts | 221° |
| 2026-04-22 12:55 | 52.11853 | 10.31284 | 4316 ft | 113 kts | 226° |
| 2026-04-22 12:55 | 52.11309 | 10.30366 | 4414 ft | 113 kts | 226° |
| 2026-04-22 12:56 | 52.10783 | 10.29394 | 4452 ft | 115 kts | 231° |
| 2026-04-22 12:56 | 52.10274 | 10.28376 | 4480 ft | 117 kts | 232° |
| 2026-04-22 12:56 | 52.09759 | 10.27357 | 4511 ft | 119 kts | 230° |
| 2026-04-22 12:56 | 52.09196 | 10.26355 | 4534 ft | 120 kts | 228° |
| 2026-04-22 12:57 | 52.08637 | 10.25331 | 4547 ft | 121 kts | 231° |
| 2026-04-22 12:57 | 52.08122 | 10.24239 | 4545 ft | 123 kts | 234° |
| 2026-04-22 12:57 | 52.07601 | 10.23126 | 4543 ft | 124 kts | 233° |
| 2026-04-22 12:57 | 52.07086 | 10.22005 | 4547 ft | 124 kts | 234° |
| 2026-04-22 12:58 | 52.06557 | 10.20888 | 4550 ft | 124 kts | 232° |
| 2026-04-22 12:58 | 52.05999 | 10.19811 | 4545 ft | 125 kts | 230° |
| 2026-04-22 12:58 | 52.05418 | 10.18764 | 4553 ft | 125 kts | 225° |
| 2026-04-22 12:58 | 52.04805 | 10.17769 | 4554 ft | 125 kts | 225° |
| 2026-04-22 12:59 | 52.04153 | 10.16810 | 4560 ft | 125 kts | 220° |
| 2026-04-22 12:59 | 52.03464 | 10.15968 | 4552 ft | 126 kts | 214° |
| 2026-04-22 12:59 | 52.02729 | 10.15188 | 4567 ft | 125 kts | 209° |
| 2026-04-22 12:59 | 52.01943 | 10.14571 | 4558 ft | 126 kts | 202° |
| 2026-04-22 13:00 | 52.01140 | 10.14036 | 4565 ft | 125 kts | 199° |
| 2026-04-22 13:00 | 52.00326 | 10.13508 | 4558 ft | 126 kts | 203° |
| 2026-04-22 13:00 | 51.99543 | 10.12855 | 4555 ft | 126 kts | 206° |
| 2026-04-22 13:00 | 51.98748 | 10.12284 | 4562 ft | 124 kts | 202° |
| 2026-04-22 13:01 | 51.97969 | 10.11597 | 4520 ft | 128 kts | 206° |
| 2026-04-22 13:01 | 51.97160 | 10.11080 | 4556 ft | 124 kts | 197° |
| 2026-04-22 13:01 | 51.96333 | 10.10672 | 4534 ft | 126 kts | 194° |
| 2026-04-22 13:01 | 51.95485 | 10.10300 | 4546 ft | 125 kts | 192° |
| 2026-04-22 13:02 | 51.94647 | 10.09973 | 4542 ft | 125 kts | 191° |
| 2026-04-22 13:02 | 51.93795 | 10.09660 | 4549 ft | 124 kts | 188° |
| 2026-04-22 13:02 | 51.92947 | 10.09394 | 4548 ft | 125 kts | 188° |
| 2026-04-22 13:02 | 51.92097 | 10.09096 | 4551 ft | 124 kts | 190° |
| 2026-04-22 13:03 | 51.91251 | 10.08833 | 4549 ft | 124 kts | 184° |
| 2026-04-22 13:03 | 51.90393 | 10.08618 | 4548 ft | 124 kts | 188° |
| 2026-04-22 13:03 | 51.89538 | 10.08363 | 4552 ft | 124 kts | 186° |
| 2026-04-22 13:03 | 51.88682 | 10.08169 | 4542 ft | 125 kts | 186° |
| 2026-04-22 13:04 | 51.87826 | 10.07941 | 4539 ft | 125 kts | 187° |
| 2026-04-22 13:04 | 51.86979 | 10.07694 | 4538 ft | 125 kts | 188° |
| 2026-04-22 13:04 | 51.86122 | 10.07403 | 4530 ft | 125 kts | 189° |
| 2026-04-22 13:04 | 51.85280 | 10.07109 | 4532 ft | 125 kts | 190° |
| 2026-04-22 13:05 | 51.84425 | 10.06770 | 4523 ft | 125 kts | 193° |
| 2026-04-22 13:05 | 51.83590 | 10.06380 | 4530 ft | 125 kts | 193° |
| 2026-04-22 13:05 | 51.82753 | 10.06050 | 4525 ft | 125 kts | 192° |
| 2026-04-22 13:05 | 51.81915 | 10.05640 | 4519 ft | 125 kts | 197° |
| 2026-04-22 13:06 | 51.81094 | 10.05168 | 4526 ft | 125 kts | 197° |
| 2026-04-22 13:06 | 51.80291 | 10.04593 | 4511 ft | 126 kts | 206° |
| 2026-04-22 13:06 | 51.79523 | 10.03899 | 4527 ft | 125 kts | 209° |
| 2026-04-22 13:06 | 51.78776 | 10.03185 | 4518 ft | 126 kts | 210° |
| 2026-04-22 13:07 | 51.78030 | 10.02468 | 4519 ft | 125 kts | 208° |
| 2026-04-22 13:07 | 51.77295 | 10.01711 | 4514 ft | 126 kts | 214° |
| 2026-04-22 13:07 | 51.76583 | 10.00855 | 4515 ft | 126 kts | 217° |
| 2026-04-22 13:07 | 51.75905 | 9.99974 | 4491 ft | 126 kts | 220° |
| 2026-04-22 13:08 | 51.75243 | 9.99023 | 4412 ft | 129 kts | 223° |
| 2026-04-22 13:08 | 51.74606 | 9.98034 | 4399 ft | 126 kts | 224° |
| 2026-04-22 13:08 | 51.73969 | 9.97021 | 4333 ft | 128 kts | 225° |
| 2026-04-22 13:08 | 51.73349 | 9.96005 | 4308 ft | 126 kts | 225° |
| 2026-04-22 13:09 | 51.72723 | 9.95001 | 4252 ft | 128 kts | 223° |
| 2026-04-22 13:09 | 51.72043 | 9.94096 | 4220 ft | 126 kts | 216° |
| 2026-04-22 13:09 | 51.71321 | 9.93298 | 4178 ft | 126 kts | 213° |
| 2026-04-22 13:09 | 51.70596 | 9.92502 | 4135 ft | 126 kts | 213° |
| 2026-04-22 13:10 | 51.69844 | 9.91765 | 4099 ft | 125 kts | 207° |
| 2026-04-22 13:10 | 51.69061 | 9.91149 | 4056 ft | 125 kts | 205° |
| 2026-04-22 13:10 | 51.68277 | 9.90535 | 4015 ft | 125 kts | 204° |
| 2026-04-22 13:10 | 51.67486 | 9.89949 | 3977 ft | 125 kts | 202° |
| 2026-04-22 13:11 | 51.66685 | 9.89403 | 3938 ft | 125 kts | 201° |
| 2026-04-22 13:11 | 51.65886 | 9.88843 | 3895 ft | 125 kts | 202° |
| 2026-04-22 13:11 | 51.65104 | 9.88266 | 3855 ft | 125 kts | 204° |
| 2026-04-22 13:11 | 51.64314 | 9.87655 | 3807 ft | 126 kts | 205° |
| 2026-04-22 13:12 | 51.63536 | 9.87003 | 3772 ft | 125 kts | 207° |
| 2026-04-22 13:12 | 51.62771 | 9.86319 | 3728 ft | 125 kts | 208° |
| 2026-04-22 13:12 | 51.62025 | 9.85634 | 3702 ft | 124 kts | 208° |
| 2026-04-22 13:12 | 51.61275 | 9.84934 | 3655 ft | 125 kts | 210° |
| 2026-04-22 13:13 | 51.60527 | 9.84196 | 3621 ft | 125 kts | 212° |
| 2026-04-22 13:13 | 51.59799 | 9.83434 | 3584 ft | 125 kts | 213° |
| 2026-04-22 13:13 | 51.59089 | 9.82641 | 3545 ft | 125 kts | 216° |
| 2026-04-22 13:13 | 51.58397 | 9.81788 | 3506 ft | 125 kts | 219° |
| 2026-04-22 13:14 | 51.57721 | 9.80910 | 3471 ft | 125 kts | 217° |
| 2026-04-22 13:14 | 51.57000 | 9.80122 | 3429 ft | 125 kts | 211° |
| 2026-04-22 13:14 | 51.56258 | 9.79416 | 3391 ft | 125 kts | 210° |
| 2026-04-22 13:14 | 51.55519 | 9.78689 | 3352 ft | 125 kts | 212° |
| 2026-04-22 13:15 | 51.54794 | 9.77895 | 3311 ft | 125 kts | 216° |
| 2026-04-22 13:15 | 51.54113 | 9.77027 | 3279 ft | 125 kts | 221° |
| 2026-04-22 13:15 | 51.53463 | 9.76081 | 3235 ft | 125 kts | 223° |
| 2026-04-22 13:15 | 51.52838 | 9.75139 | 3202 ft | 125 kts | 224° |
| 2026-04-22 13:16 | 51.52225 | 9.74142 | 3166 ft | 125 kts | 227° |
| 2026-04-22 13:16 | 51.51651 | 9.73089 | 3132 ft | 124 kts | 230° |
| 2026-04-22 13:16 | 51.51110 | 9.72014 | 3094 ft | 124 kts | 233° |
| 2026-04-22 13:16 | 51.50679 | 9.70798 | 3017 ft | 127 kts | 256° |
| 2026-04-22 13:17 | 51.50624 | 9.69399 | 2992 ft | 122 kts | 274° |
| 2026-04-22 13:17 | 51.50590 | 9.68068 | 2984 ft | 121 kts | 269° |
| 2026-04-22 13:17 | 51.50536 | 9.66708 | 2931 ft | 123 kts | 270° |
| 2026-04-22 13:17 | 51.50448 | 9.65316 | 2856 ft | 126 kts | 266° |
| 2026-04-22 13:18 | 51.50351 | 9.63928 | 2839 ft | 123 kts | 268° |
| 2026-04-22 13:18 | 51.50294 | 9.62568 | 2766 ft | 124 kts | 270° |
| 2026-04-22 13:18 | 51.50203 | 9.61200 | 2724 ft | 123 kts | 266° |
| 2026-04-22 13:18 | 51.50074 | 9.59847 | 2678 ft | 123 kts | 263° |
| 2026-04-22 13:19 | 51.49932 | 9.58478 | 2623 ft | 124 kts | 265° |
| 2026-04-22 13:19 | 51.49838 | 9.57123 | 2598 ft | 122 kts | 268° |
| 2026-04-22 13:19 | 51.49754 | 9.55743 | 2527 ft | 124 kts | 265° |
| 2026-04-22 13:19 | 51.49610 | 9.54400 | 2472 ft | 123 kts | 262° |
| 2026-04-22 13:20 | 51.49293 | 9.53123 | 2383 ft | 128 kts | 234° |
| 2026-04-22 13:20 | 51.48581 | 9.52273 | 2289 ft | 127 kts | 199° |
| 2026-04-22 13:20 | 51.47781 | 9.51805 | 2305 ft | 120 kts | 198° |
| 2026-04-22 13:20 | 51.46987 | 9.51314 | 2229 ft | 124 kts | 200° |
| 2026-04-22 13:21 | 51.46198 | 9.50784 | 2233 ft | 121 kts | 202° |
| 2026-04-22 13:21 | 51.45427 | 9.50174 | 2163 ft | 124 kts | 207° |
| 2026-04-22 13:21 | 51.44666 | 9.49550 | 2063 ft | 123 kts | 205° |
| 2026-04-22 13:21 | 51.43924 | 9.48957 | 2032 ft | 113 kts | 207° |
| 2026-04-22 13:22 | 51.43251 | 9.48362 | 1972 ft | 109 kts | 210° |
| 2026-04-22 13:22 | 51.42624 | 9.47719 | 1915 ft | 106 kts | 211° |
| 2026-04-22 13:22 | 51.42018 | 9.47012 | 1805 ft | 110 kts | 227° |
| 2026-04-22 13:22 | 51.41676 | 9.45904 | 1567 ft | 116 kts | 264° |
| 2026-04-22 13:23 | 51.41743 | 9.44651 | 1292 ft | 111 kts | 287° |
| 2026-04-22 13:23 | 51.41838 | 9.43458 | 1102 ft | 105 kts | 282° |
| 2026-04-22 13:23 | 51.41912 | 9.42354 | 977 ft | 96 kts | 279° |
| 2026-04-22 13:23 | 51.41964 | 9.41336 | 886 ft | 89 kts | 281° |
| 2026-04-22 13:24 | 51.42015 | 9.40361 | 826 ft | 82 kts | 282° |
| 2026-04-22 13:24 | 51.42063 | 9.39577 | 829 ft | 58 kts | 277° |
| 2026-04-22 13:24 | 51.42081 | 9.39046 | 837 ft | 32 kts | 279° |
| 2026-04-22 13:24 | 51.42034 | 9.38885 | 840 ft | 14 kts | 179° |
| 2026-04-22 13:25 | 51.41940 | 9.38928 | 840 ft | 16 kts | 107° |
| 2026-04-22 13:25 | 51.41925 | 9.39123 | 836 ft | 19 kts | 94° |
| 2026-04-22 13:25 | 51.41913 | 9.39329 | 830 ft | 15 kts | 112° |
| 2026-04-22 13:25 | 51.41810 | 9.39354 | 825 ft | 15 kts | 182° |
| 2026-04-22 13:26 | 51.41744 | 9.39374 | 825 ft | 4 kts | 90° |
| 2026-04-22 13:26 | 51.41750 | 9.39391 | 825 ft | 0 kts | 38° |